Terminal Aerodrome Forecast
Issued by NWS

Home | Current Version | Previous Version | Text Only | Print | Product List | Glossary On
Versions: 1 2 3 4 5 6 7 8 9 10 11 12
000
FTUS43 KJKL 181100
TAFSME
TAF
KSME 181140Z 1812/1912 00000KT 4SM BR BKN080
     FM181400 VRB04KT P6SM SCT025 BKN050
     FM182200 01004KT P6SM FEW250
     FM190800 VRB03KT 4SM BR SKC
      AMD NOT SKED=

USA.gov is the U.S. government's official web portal to all federal, state and local government web resources and services.